createdAt,value
2022-12-29T00:00:27.352Z,7.80
2022-12-29T00:03:32.182Z,7.90
2022-12-29T00:06:36.487Z,8.00
2022-12-29T00:09:40.877Z,8.00
2022-12-29T00:13:03.772Z,8.00
2022-12-29T00:16:08.536Z,8.00
2022-12-29T00:19:31.890Z,8.00
2022-12-29T00:22:55.285Z,7.90
2022-12-29T00:26:23.554Z,7.70
2022-12-29T00:29:47.207Z,7.70
2022-12-29T00:33:09.944Z,7.60
2022-12-29T00:36:17.375Z,7.80
2022-12-29T00:39:41.337Z,7.80
2022-12-29T00:43:04.261Z,7.80
2022-12-29T00:46:10.682Z,7.60
2022-12-29T00:49:32.508Z,7.80
2022-12-29T00:52:37.024Z,7.70
2022-12-29T00:55:41.392Z,7.50
2022-12-29T00:58:46.015Z,7.60
2022-12-29T01:01:52.046Z,7.90
2022-12-29T01:04:57.539Z,7.70
2022-12-29T01:08:01.863Z,7.60
2022-12-29T01:11:10.267Z,7.70
2022-12-29T01:14:15.498Z,7.70
2022-12-29T01:17:19.881Z,7.70
2022-12-29T01:20:24.567Z,7.80
2022-12-29T01:23:29.485Z,7.60
2022-12-29T01:26:33.652Z,8.00
2022-12-29T01:29:37.999Z,7.70
2022-12-29T01:32:43.113Z,7.80
2022-12-29T01:35:47.757Z,7.80
2022-12-29T01:38:52.399Z,7.70
2022-12-29T01:41:58.924Z,7.80
2022-12-29T01:45:09.373Z,7.80
2022-12-29T01:48:15.059Z,8.10
2022-12-29T01:51:20.730Z,8.10
2022-12-29T01:54:31.733Z,8.20
2022-12-29T01:57:40.617Z,8.10
2022-12-29T02:00:45.360Z,8.10
2022-12-29T02:03:51.088Z,8.20
2022-12-29T02:07:00.779Z,8.10
2022-12-29T02:10:06.281Z,8.10
2022-12-29T02:13:11.795Z,7.80
2022-12-29T02:16:46.048Z,8.00
2022-12-29T02:20:14.852Z,7.80
2022-12-29T02:24:13.130Z,8.10
2022-12-29T02:27:41.140Z,7.80
2022-12-29T02:30:51.634Z,7.90
2022-12-29T02:34:30.707Z,8.10
2022-12-29T02:38:17.085Z,7.80
2022-12-29T02:41:31.560Z,8.20
2022-12-29T02:44:42.924Z,8.00
2022-12-29T02:47:47.392Z,7.90
2022-12-29T02:51:05.445Z,8.00
2022-12-29T02:54:28.937Z,8.20
2022-12-29T02:57:36.782Z,8.00
2022-12-29T03:00:53.108Z,8.20
2022-12-29T03:04:06.811Z,8.20
2022-12-29T03:07:30.486Z,8.10
2022-12-29T03:10:59.960Z,8.00
2022-12-29T03:14:42.754Z,8.00
2022-12-29T03:18:10.528Z,8.20
2022-12-29T03:21:50.159Z,8.20
2022-12-29T03:25:07.036Z,8.30
2022-12-29T03:28:26.784Z,8.00
2022-12-29T03:31:31.343Z,8.20
2022-12-29T03:34:37.013Z,8.20
2022-12-29T03:37:47.358Z,8.10
2022-12-29T03:40:59.218Z,8.30
2022-12-29T03:44:07.992Z,8.00
2022-12-29T03:47:14.897Z,8.00
2022-12-29T03:50:20.629Z,8.20
2022-12-29T03:53:25.343Z,8.30
2022-12-29T03:56:29.608Z,8.20
2022-12-29T03:59:34.436Z,8.20
2022-12-29T04:02:39.594Z,8.10
2022-12-29T04:05:44.386Z,8.30
2022-12-29T04:08:49.166Z,8.00
2022-12-29T04:11:54.738Z,8.00
2022-12-29T04:14:59.475Z,8.00
2022-12-29T04:18:03.868Z,8.00
2022-12-29T04:21:08.506Z,8.00
2022-12-29T04:24:16.561Z,8.00
2022-12-29T04:27:23.532Z,8.00
2022-12-29T04:30:55.907Z,8.00
2022-12-29T04:34:02.888Z,8.20
2022-12-29T04:37:07.575Z,8.10
2022-12-29T04:40:12.708Z,8.30
2022-12-29T04:43:17.789Z,8.40
2022-12-29T04:46:41.600Z,8.30
2022-12-29T04:49:49.581Z,8.20
2022-12-29T04:53:07.564Z,8.20
2022-12-29T04:56:12.112Z,8.40
2022-12-29T04:59:16.484Z,8.20
2022-12-29T05:02:25.003Z,8.20
2022-12-29T05:05:29.699Z,8.40
2022-12-29T05:08:35.233Z,8.10
2022-12-29T05:11:40.808Z,8.30
2022-12-29T05:14:46.835Z,8.30
2022-12-29T05:17:51.197Z,8.30
2022-12-29T05:20:56.198Z,8.30
2022-12-29T05:24:01.756Z,8.30
2022-12-29T05:27:06.614Z,8.40
2022-12-29T05:30:32.073Z,8.40
2022-12-29T05:33:36.546Z,8.40
2022-12-29T05:36:41.556Z,8.40
2022-12-29T05:39:47.721Z,8.30
2022-12-29T05:42:52.742Z,8.20
2022-12-29T05:46:17.779Z,8.40
2022-12-29T05:49:49.704Z,8.10
2022-12-29T05:53:09.617Z,8.30
2022-12-29T05:56:15.674Z,8.40
2022-12-29T05:59:20.690Z,8.40
2022-12-29T06:02:25.855Z,8.30
2022-12-29T06:05:30.986Z,8.40
2022-12-29T06:08:36.293Z,8.50
2022-12-29T06:11:41.223Z,8.40
2022-12-29T06:14:46.260Z,8.50
2022-12-29T06:17:50.703Z,8.70
2022-12-29T06:20:59.903Z,8.70
2022-12-29T06:24:05.494Z,8.60
2022-12-29T06:27:12.208Z,8.70
2022-12-29T06:30:18.033Z,8.70
2022-12-29T06:33:23.053Z,8.70
2022-12-29T06:36:27.600Z,8.70
2022-12-29T06:39:31.923Z,8.50
2022-12-29T06:42:43.945Z,8.70
2022-12-29T06:46:12.319Z,8.50
2022-12-29T06:49:17.188Z,8.50
2022-12-29T06:52:21.759Z,8.70
2022-12-29T06:55:25.920Z,8.40
2022-12-29T06:58:30.255Z,8.50
2022-12-29T07:01:35.469Z,8.60
2022-12-29T07:04:40.073Z,8.60
2022-12-29T07:07:44.802Z,8.40
2022-12-29T07:10:49.426Z,8.50
2022-12-29T07:13:53.919Z,8.60
2022-12-29T07:16:58.434Z,8.60
2022-12-29T07:20:03.364Z,8.40
2022-12-29T07:23:09.041Z,8.60
2022-12-29T07:26:15.956Z,8.40
2022-12-29T07:29:20.830Z,8.50
2022-12-29T07:32:25.382Z,8.50
2022-12-29T07:35:29.760Z,8.60
2022-12-29T07:38:34.105Z,8.50
2022-12-29T07:41:38.578Z,8.60
2022-12-29T07:44:43.308Z,8.60
2022-12-29T07:47:54.315Z,8.50
2022-12-29T07:50:58.861Z,8.60
2022-12-29T07:54:03.304Z,8.50
2022-12-29T07:57:07.778Z,8.50
2022-12-29T08:00:13.168Z,8.60
2022-12-29T08:03:17.823Z,8.50
2022-12-29T08:06:23.175Z,8.20
2022-12-29T08:09:29.367Z,8.20
2022-12-29T08:12:33.890Z,8.50
2022-12-29T08:15:38.804Z,8.60
2022-12-29T08:18:43.390Z,8.40
2022-12-29T08:21:47.866Z,8.60
2022-12-29T08:24:52.655Z,8.30
2022-12-29T08:27:57.689Z,8.20
2022-12-29T08:31:03.942Z,8.30
2022-12-29T08:34:08.425Z,8.60
2022-12-29T08:37:12.775Z,8.70
2022-12-29T08:40:17.356Z,8.80
2022-12-29T08:43:21.777Z,8.70
2022-12-29T08:46:26.563Z,9.00
2022-12-29T08:49:30.778Z,8.70
2022-12-29T08:52:34.891Z,9.10
2022-12-29T08:55:39.201Z,9.10
2022-12-29T08:58:44.170Z,9.20
2022-12-29T09:01:48.960Z,9.20
2022-12-29T09:04:53.633Z,9.20
2022-12-29T09:07:57.952Z,9.40
2022-12-29T09:11:14.644Z,9.30
2022-12-29T09:14:19.348Z,9.40
2022-12-29T09:17:43.286Z,9.20
2022-12-29T09:20:47.794Z,9.20
2022-12-29T09:23:52.289Z,9.30
2022-12-29T09:26:56.649Z,9.10
2022-12-29T09:30:00.963Z,9.30
2022-12-29T09:33:05.472Z,9.20
2022-12-29T09:36:09.879Z,9.40
2022-12-29T09:39:14.434Z,9.50
2022-12-29T09:42:41.985Z,9.40
2022-12-29T09:45:54.251Z,9.60
2022-12-29T09:49:10.524Z,9.40
2022-12-29T09:52:20.408Z,9.50
2022-12-29T09:55:33.286Z,9.40
2022-12-29T09:58:42.947Z,9.40
2022-12-29T10:02:18.070Z,9.40
2022-12-29T10:05:28.874Z,9.30
2022-12-29T10:08:48.611Z,9.50
2022-12-29T10:12:21.184Z,9.30
2022-12-29T10:16:16.177Z,9.30
2022-12-29T10:19:39.630Z,9.40
2022-12-29T10:22:56.467Z,9.40
2022-12-29T10:26:03.700Z,9.50
2022-12-29T10:29:19.761Z,9.40
2022-12-29T10:32:56.369Z,9.40
2022-12-29T10:36:13.217Z,9.30
2022-12-29T10:39:41.528Z,9.20
2022-12-29T10:42:51.899Z,9.30
2022-12-29T10:46:00.208Z,9.50
2022-12-29T10:49:07.635Z,9.20
2022-12-29T10:52:14.454Z,9.20
2022-12-29T10:55:36.443Z,9.20
2022-12-29T10:58:45.617Z,9.10
2022-12-29T11:02:10.876Z,9.10
2022-12-29T11:05:52.049Z,9.00
2022-12-29T11:09:22.301Z,9.30
2022-12-29T11:12:31.974Z,9.90
2022-12-29T11:15:50.810Z,10.20
2022-12-29T11:18:54.890Z,10.50
2022-12-29T11:22:26.394Z,10.50
2022-12-29T11:25:30.689Z,9.70
2022-12-29T11:28:34.748Z,9.50
2022-12-29T11:31:43.155Z,9.60
2022-12-29T11:34:48.338Z,10.70
2022-12-29T11:37:58.208Z,10.70
2022-12-29T11:41:04.713Z,9.90
2022-12-29T11:44:13.667Z,9.70
2022-12-29T11:47:28.984Z,10.10
2022-12-29T11:50:34.942Z,10.20
2022-12-29T11:53:40.251Z,10.40
2022-12-29T11:56:45.015Z,10.50
2022-12-29T11:59:58.577Z,10.90
2022-12-29T12:03:18.798Z,10.60
2022-12-29T12:06:25.161Z,10.50
2022-12-29T12:09:38.068Z,10.40
2022-12-29T12:12:49.412Z,10.20
2022-12-29T12:16:03.103Z,10.10
2022-12-29T12:19:21.050Z,10.10
2022-12-29T12:22:35.580Z,10.10
2022-12-29T12:25:49.143Z,10.10
2022-12-29T12:28:58.601Z,10.40
2022-12-29T12:32:25.744Z,10.40
2022-12-29T12:35:45.076Z,10.50
2022-12-29T12:38:52.142Z,10.90
2022-12-29T12:42:19.755Z,10.80
2022-12-29T12:45:51.704Z,11.40
2022-12-29T12:49:08.436Z,10.90
2022-12-29T12:52:29.804Z,10.20
2022-12-29T12:56:09.015Z,9.80
2022-12-29T12:59:35.250Z,9.60
2022-12-29T13:03:01.842Z,9.50
2022-12-29T13:06:24.501Z,9.40
2022-12-29T13:09:50.302Z,9.20
2022-12-29T13:13:13.731Z,9.10
2022-12-29T13:16:35.643Z,9.10
2022-12-29T13:19:44.175Z,8.90
2022-12-29T13:23:20.724Z,9.00
2022-12-29T13:26:32.448Z,8.90
2022-12-29T13:29:57.760Z,8.90
2022-12-29T13:33:21.870Z,8.90
2022-12-29T13:36:55.907Z,8.90
2022-12-29T13:40:04.736Z,8.90
2022-12-29T13:43:10.265Z,8.90
2022-12-29T13:46:26.900Z,8.90
2022-12-29T13:49:31.715Z,8.90
2022-12-29T13:52:38.788Z,8.80
2022-12-29T13:56:04.522Z,8.80
2022-12-29T13:59:39.429Z,8.80
2022-12-29T14:02:46.626Z,8.80
2022-12-29T14:06:20.232Z,8.70
2022-12-29T14:09:54.204Z,8.60
2022-12-29T14:13:12.282Z,8.50
2022-12-29T14:16:31.951Z,8.60
2022-12-29T14:19:42.207Z,8.50
2022-12-29T14:23:17.755Z,8.50
2022-12-29T14:26:31.290Z,8.50
2022-12-29T14:29:41.597Z,8.50
2022-12-29T14:33:03.415Z,8.50
2022-12-29T14:36:35.265Z,8.50
2022-12-29T14:39:41.175Z,8.40
2022-12-29T14:42:47.359Z,8.40
2022-12-29T14:46:02.579Z,8.50
2022-12-29T14:49:17.359Z,8.60
2022-12-29T14:52:25.659Z,8.60
2022-12-29T14:55:32.911Z,8.70
2022-12-29T14:58:48.347Z,8.60
2022-12-29T15:01:55.803Z,8.60
2022-12-29T15:05:03.048Z,8.50
2022-12-29T15:08:08.253Z,8.50
2022-12-29T15:11:22.479Z,8.50
2022-12-29T15:14:40.412Z,8.40
2022-12-29T15:17:44.513Z,8.40
2022-12-29T15:20:54.136Z,8.50
2022-12-29T15:23:58.867Z,8.40
2022-12-29T15:27:05.458Z,8.30
2022-12-29T15:30:18.075Z,8.30
2022-12-29T15:33:26.887Z,8.30
2022-12-29T15:36:39.587Z,8.30
2022-12-29T15:39:44.547Z,8.30
2022-12-29T15:43:17.927Z,8.30
2022-12-29T15:46:22.728Z,8.30
2022-12-29T15:49:32.012Z,8.20
2022-12-29T15:52:40.731Z,8.20
2022-12-29T15:55:48.517Z,8.20
2022-12-29T15:58:53.438Z,8.30
2022-12-29T16:01:59.303Z,8.30
2022-12-29T16:05:17.803Z,8.40
2022-12-29T16:08:38.091Z,8.30
2022-12-29T16:12:07.491Z,8.30
2022-12-29T16:15:14.886Z,8.30
2022-12-29T16:18:29.909Z,8.30
2022-12-29T16:21:36.716Z,8.30
2022-12-29T16:24:41.605Z,8.20
2022-12-29T16:27:46.082Z,8.10
2022-12-29T16:31:05.259Z,8.20
2022-12-29T16:34:28.784Z,8.10
2022-12-29T16:37:37.105Z,8.10
2022-12-29T16:40:58.432Z,8.00
2022-12-29T16:44:16.706Z,8.10
2022-12-29T16:47:22.139Z,7.90
2022-12-29T16:50:28.888Z,7.80
2022-12-29T16:53:38.064Z,7.80
2022-12-29T16:56:45.545Z,7.70
2022-12-29T16:59:53.830Z,7.80
2022-12-29T17:03:01.170Z,7.80
2022-12-29T17:06:06.162Z,7.70
2022-12-29T17:09:29.496Z,7.70
2022-12-29T17:12:35.605Z,7.60
2022-12-29T17:15:39.797Z,7.60
2022-12-29T17:18:44.148Z,7.60
2022-12-29T17:21:48.850Z,7.40
2022-12-29T17:24:55.463Z,7.40
2022-12-29T17:28:23.326Z,7.40
2022-12-29T17:31:27.718Z,7.60
2022-12-29T17:34:33.295Z,7.50
2022-12-29T17:37:38.084Z,7.50
2022-12-29T17:40:42.986Z,7.50
2022-12-29T17:43:47.468Z,7.40
2022-12-29T17:46:52.038Z,7.40
2022-12-29T17:49:56.368Z,7.50
2022-12-29T17:53:04.413Z,7.50
2022-12-29T17:56:10.142Z,7.40
2022-12-29T17:59:15.274Z,7.50
2022-12-29T18:02:30.585Z,7.40
2022-12-29T18:05:35.177Z,7.40
2022-12-29T18:08:40.967Z,7.50
2022-12-29T18:11:45.685Z,7.50
2022-12-29T18:14:50.309Z,7.50
2022-12-29T18:18:14.555Z,7.40
2022-12-29T18:21:21.585Z,7.40
2022-12-29T18:24:28.390Z,7.40
2022-12-29T18:27:32.801Z,7.30
2022-12-29T18:30:37.835Z,7.30
2022-12-29T18:33:42.634Z,7.10
2022-12-29T18:36:47.369Z,7.10
2022-12-29T18:39:51.843Z,7.10
2022-12-29T18:42:56.226Z,7.00
2022-12-29T18:46:00.457Z,7.00
2022-12-29T18:49:04.810Z,7.00
2022-12-29T18:52:13.633Z,7.10
2022-12-29T18:55:21.743Z,7.10
2022-12-29T18:58:33.768Z,6.90
2022-12-29T19:01:38.493Z,6.80
2022-12-29T19:04:43.131Z,7.00
2022-12-29T19:07:47.675Z,7.00
2022-12-29T19:10:52.218Z,7.00
2022-12-29T19:13:56.657Z,7.00
2022-12-29T19:17:01.088Z,7.00
2022-12-29T19:20:06.419Z,7.10
2022-12-29T19:23:17.328Z,7.00
2022-12-29T19:26:31.049Z,7.00
2022-12-29T19:29:35.948Z,6.90
2022-12-29T19:32:41.158Z,7.00
2022-12-29T19:35:45.588Z,6.90
2022-12-29T19:38:50.148Z,7.00
2022-12-29T19:41:59.131Z,7.00
2022-12-29T19:45:07.654Z,7.00
2022-12-29T19:48:18.763Z,6.80
2022-12-29T19:51:23.112Z,6.90
2022-12-29T19:54:27.665Z,6.80
2022-12-29T19:57:32.202Z,6.80
2022-12-29T20:00:40.029Z,6.80
2022-12-29T20:03:44.639Z,6.80
2022-12-29T20:06:48.726Z,6.80
2022-12-29T20:09:52.991Z,6.80
2022-12-29T20:12:57.545Z,6.80
2022-12-29T20:16:05.856Z,6.70
2022-12-29T20:19:10.997Z,6.80
2022-12-29T20:22:15.169Z,6.70
2022-12-29T20:25:44.257Z,6.90
2022-12-29T20:28:44.448Z,6.70
2022-12-29T20:31:49.913Z,6.80
2022-12-29T20:34:54.484Z,6.80
2022-12-29T20:37:58.887Z,6.80
2022-12-29T20:41:04.437Z,6.80
2022-12-29T20:44:09.987Z,6.80
2022-12-29T20:47:14.468Z,6.90
2022-12-29T20:50:19.081Z,6.90
2022-12-29T20:53:23.353Z,6.90
2022-12-29T20:56:30.151Z,6.80
2022-12-29T20:59:34.740Z,6.90
2022-12-29T21:02:39.294Z,6.80
2022-12-29T21:05:43.723Z,6.80
2022-12-29T21:08:53.386Z,6.80
2022-12-29T21:11:57.975Z,6.90
2022-12-29T21:15:02.649Z,7.00
2022-12-29T21:18:07.140Z,7.10
2022-12-29T21:21:23.323Z,7.00
2022-12-29T21:24:28.074Z,6.80
2022-12-29T21:27:33.427Z,6.80
2022-12-29T21:30:38.808Z,7.00
2022-12-29T21:33:43.004Z,6.90
2022-12-29T21:36:47.668Z,6.90
2022-12-29T21:39:52.115Z,6.90
2022-12-29T21:42:56.591Z,7.00
2022-12-29T21:46:01.291Z,6.90
2022-12-29T21:49:06.515Z,7.00
2022-12-29T21:52:10.886Z,6.90
2022-12-29T21:55:15.392Z,7.00
2022-12-29T21:58:38.495Z,6.90
2022-12-29T22:02:01.544Z,6.90
2022-12-29T22:05:25.474Z,6.80
2022-12-29T22:08:48.446Z,7.00
2022-12-29T22:12:11.342Z,7.00
2022-12-29T22:15:16.328Z,7.00
2022-12-29T22:18:20.993Z,6.90
2022-12-29T22:21:25.196Z,6.90
2022-12-29T22:24:29.501Z,7.00
2022-12-29T22:27:33.736Z,6.90
2022-12-29T22:30:38.274Z,6.90
2022-12-29T22:33:45.499Z,7.00
2022-12-29T22:36:50.161Z,7.00
2022-12-29T22:39:54.356Z,7.00
2022-12-29T22:42:58.550Z,7.00
2022-12-29T22:46:08.076Z,7.00
2022-12-29T22:49:12.418Z,7.00
2022-12-29T22:52:17.075Z,7.00
2022-12-29T22:55:21.665Z,6.90
2022-12-29T22:58:26.336Z,7.10
2022-12-29T23:01:30.819Z,7.10
2022-12-29T23:05:02.183Z,7.00
2022-12-29T23:08:00.678Z,7.00
2022-12-29T23:11:07.781Z,6.90
2022-12-29T23:14:12.407Z,6.90
2022-12-29T23:17:16.737Z,6.90
2022-12-29T23:20:21.363Z,6.80
2022-12-29T23:23:48.797Z,6.80
2022-12-29T23:26:53.925Z,6.80
2022-12-29T23:29:58.311Z,6.90
2022-12-29T23:33:02.730Z,7.00
2022-12-29T23:36:07.699Z,6.90
2022-12-29T23:39:19.109Z,6.80
2022-12-29T23:42:23.307Z,6.90
2022-12-29T23:45:27.656Z,6.90
2022-12-29T23:48:31.750Z,7.00
2022-12-29T23:51:36.580Z,7.00
2022-12-29T23:54:41.202Z,7.00
2022-12-29T23:57:45.604Z,7.00
